Terminal Aerodrome Forecast
Issued by NWS Upton, NY

Home | Current Version | Previous Version | Text Only | Print | Product List | Glossary On
Versions: 1 2 3 4 5 6 7 8 9 10 11 12 13 14 15 16 17 18 19 20 21 22 23 24 25 26 27 28 29 30 31
801
FTUS41 KOKX 281312 AAA
TAFBDR
TAF AMD
KBDR 281312Z 2813/2912 03014KT P6SM SCT015 BKN025 BKN250
      TEMPO 2813/2815 BKN015
     FM281500 05015G20KT P6SM OVC020
     FM281700 05016G22KT P6SM -DZ OVC015=

USA.gov is the U.S. government's official web portal to all federal, state and local government web resources and services.